CheckWX is a tool to help pilots better visualize weather data.  It is not intended as a substitute for an official pre-flight weather briefing.

12:21:34 UTC

FVMV METAR
Masvingo International Airport
Masvingo, Zimbabwe
Current

4 hours ago

FVMV 180800Z 16012KT 9999 SCT028 BKN300 20/13 Q1021 NOSIG
Observed
Feb-18 @ 08:00 UTC
Wind
  • 160° at 12 KTS
Visibility
10,000+ meters
Flight Rules
VFR
Cloud Levels
  • Scattered at 2,800' AGL
  • Broken at 30,000' AGL
Temperature
20°C / 68°F
Dewpoint
13°C / 55°F
Humidity
64%
Altimeter
30.15" Hg
Pressure
1020.92 hPa